Time;durP1;ratioP1;P1;durP2;ratioP2;P2;SDS_P1;SDS_P2;PMS_P1;PMS_P2;Temp;Humidity;BMP_temperature;BMP_pressure;BME280_temperature;BME280_humidity;BME280_pressure;Samples;Min_cycle;Max_cycle;Signal;HPM_P1;HPM_P2
2023/06/10 00:00:20;;;;;;;7.30;6.60;;;16.50;72.40;;;;;;5071963;28;20442;-75
2023/06/10 00:02:47;;;;;;;8.20;7.40;;;16.40;72.40;;;;;;5071571;28;20484;-75
2023/06/10 00:05:16;;;;;;;7.20;6.30;;;16.40;72.40;;;;;;5071695;28;20854;-75
2023/06/10 00:07:43;;;;;;;7.63;6.90;;;16.30;72.10;;;;;;5071501;28;20847;-75
2023/06/10 00:10:11;;;;;;;8.60;6.50;;;16.30;72.60;;;;;;5072871;28;20844;-74
2023/06/10 00:12:40;;;;;;;8.20;7.27;;;16.30;72.80;;;;;;5075213;28;20443;-75
2023/06/10 00:15:08;;;;;;;8.27;6.67;;;16.30;73.00;;;;;;5076049;28;20865;-75
2023/06/10 00:17:38;;;;;;;9.20;5.77;;;16.20;73.30;;;;;;5075813;28;20456;-75
2023/06/10 00:20:08;;;;;;;7.30;6.60;;;16.20;73.90;;;;;;5075727;28;20437;-73
2023/06/10 00:22:36;;;;;;;7.20;6.50;;;16.10;74.00;;;;;;5075344;28;20449;-74
2023/06/10 00:25:03;;;;;;;9.73;6.33;;;16.20;73.50;;;;;;5075700;28;20461;-75
2023/06/10 00:27:34;;;;;;;8.80;6.23;;;16.10;73.70;;;;;;5075838;28;20448;-74
2023/06/10 00:30:06;;;;;;;7.60;6.23;;;16.00;74.50;;;;;;5075564;28;20530;-76
2023/06/10 00:32:33;;;;;;;6.60;5.70;;;15.90;75.40;;;;;;5074795;28;20496;-74
2023/06/10 00:35:00;;;;;;;6.87;6.00;;;15.90;75.30;;;;;;5075470;28;20466;-74
2023/06/10 00:37:28;;;;;;;7.03;6.33;;;15.90;75.40;;;;;;5075826;28;20451;-74
2023/06/10 00:39:55;;;;;;;9.97;7.67;;;15.90;75.40;;;;;;5075723;28;20904;-74
2023/06/10 00:42:24;;;;;;;9.97;6.53;;;15.80;75.70;;;;;;5075560;28;20807;-75
2023/06/10 00:44:51;;;;;;;7.70;5.70;;;15.80;76.20;;;;;;5074950;28;20949;-74
2023/06/10 00:47:20;;;;;;;8.17;6.20;;;15.80;76.60;;;;;;5075386;28;20464;-75
2023/06/10 00:49:48;;;;;;;7.17;6.13;;;15.80;75.40;;;;;;5075298;28;20438;-74
2023/06/10 00:52:17;;;;;;;7.10;6.00;;;15.70;75.50;;;;;;5075315;28;20449;-75
2023/06/10 00:54:44;;;;;;;6.60;5.90;;;15.70;76.20;;;;;;5074112;28;20520;-75
2023/06/10 00:57:13;;;;;;;8.70;6.60;;;15.70;76.20;;;;;;5075266;28;20434;-75
2023/06/10 00:59:40;;;;;;;8.47;6.90;;;15.70;75.90;;;;;;5075023;28;20866;-75
2023/06/10 01:02:09;;;;;;;8.77;6.00;;;15.60;76.20;;;;;;5074991;28;20904;-74
2023/06/10 01:04:37;;;;;;;7.47;6.53;;;15.60;76.30;;;;;;5074182;28;20486;-75
2023/06/10 01:07:15;;;;;;;7.33;6.63;;;15.60;76.50;;;;;;5074503;28;20521;-74
2023/06/10 01:09:50;;;;;;;6.20;5.60;;;15.60;76.60;;;;;;5074951;28;20800;-74
2023/06/10 01:12:27;;;;;;;7.10;6.40;;;15.50;76.90;;;;;;5074078;28;20438;-74
2023/06/10 01:14:54;;;;;;;7.73;6.07;;;15.50;76.90;;;;;;5054954;28;20525;-75
2023/06/10 01:17:21;;;;;;;8.10;6.80;;;15.50;76.90;;;;;;5054930;28;20434;-75
2023/06/10 01:19:56;;;;;;;12.00;7.10;;;15.50;76.30;;;;;;5054445;28;20501;-74
2023/06/10 01:22:28;;;;;;;7.07;6.37;;;15.40;76.70;;;;;;5068863;28;20445;-74
2023/06/10 01:24:58;;;;;;;7.10;5.77;;;15.30;77.30;;;;;;5074610;28;20851;-73
2023/06/10 01:27:30;;;;;;;7.83;7.03;;;15.30;77.30;;;;;;5074548;28;20529;-74
2023/06/10 01:30:03;;;;;;;10.23;6.60;;;15.20;77.70;;;;;;5074811;28;20442;-74
2023/06/10 01:32:35;;;;;;;8.07;7.10;;;15.20;78.10;;;;;;5073875;28;20555;-74
2023/06/10 01:35:04;;;;;;;7.00;6.30;;;15.30;78.40;;;;;;5074309;28;20569;-74
2023/06/10 01:37:34;;;;;;;6.83;6.00;;;15.30;78.10;;;;;;5074479;28;20438;-74
2023/06/10 01:40:05;;;;;;;7.53;6.10;;;15.20;77.70;;;;;;5074539;28;20456;-73
2023/06/10 01:42:33;;;;;;;7.80;6.67;;;15.20;77.60;;;;;;5073904;28;20495;-74
2023/06/10 01:45:00;;;;;;;8.40;7.40;;;15.20;78.80;;;;;;5074514;28;20495;-74
2023/06/10 01:47:27;;;;;;;9.73;7.17;;;15.20;79.20;;;;;;5074443;28;20434;-74
2023/06/10 01:49:54;;;;;;;10.70;7.20;;;15.20;79.30;;;;;;5074352;28;20908;-74
2023/06/10 01:52:21;;;;;;;9.43;6.50;;;15.20;79.30;;;;;;5073990;28;21506;-74
2023/06/10 01:54:49;;;;;;;7.67;6.23;;;15.20;78.80;;;;;;5073287;28;20509;-74
2023/06/10 01:57:16;;;;;;;8.23;6.77;;;15.20;78.30;;;;;;5074444;28;20445;-74
2023/06/10 01:59:44;;;;;;;9.13;6.83;;;15.10;79.30;;;;;;5073378;28;20509;-74
2023/06/10 02:02:11;;;;;;;15.03;8.20;;;15.10;79.30;;;;;;5073961;28;20478;-74
2023/06/10 02:04:38;;;;;;;10.80;6.83;;;15.10;78.70;;;;;;5073565;28;20475;-74
2023/06/10 02:07:06;;;;;;;9.23;6.90;;;15.00;79.20;;;;;;5073843;28;20935;-74
2023/06/10 02:09:35;;;;;;;8.87;6.40;;;14.90;79.20;;;;;;5073902;28;20445;-73
2023/06/10 02:12:04;;;;;;;8.00;6.80;;;14.80;80.00;;;;;;5073450;28;20852;-74
2023/06/10 02:14:33;;;;;;;6.90;6.00;;;14.80;80.00;;;;;;5072970;28;20479;-74
2023/06/10 02:17:00;;;;;;;7.50;6.60;;;14.70;79.40;;;;;;5073705;28;20935;-74
2023/06/10 02:19:27;;;;;;;8.23;7.50;;;14.60;80.00;;;;;;5073563;28;20445;-74
2023/06/10 02:21:55;;;;;;;8.60;7.40;;;14.60;81.10;;;;;;5073655;28;20459;-74
2023/06/10 02:24:22;;;;;;;8.37;6.87;;;14.60;81.90;;;;;;5073590;28;20456;-74
2023/06/10 02:26:51;;;;;;;7.60;6.80;;;14.60;82.00;;;;;;5073487;28;20437;-74
2023/06/10 02:29:20;;;;;;;8.43;7.20;;;14.60;80.30;;;;;;5073276;28;20449;-73
2023/06/10 02:31:47;;;;;;;9.73;6.87;;;14.60;80.00;;;;;;5072341;28;20448;-73
2023/06/10 02:34:15;;;;;;;7.53;6.20;;;14.50;80.50;;;;;;5072431;28;20487;-73
2023/06/10 02:36:42;;;;;;;7.70;6.90;;;14.50;81.30;;;;;;5073399;28;20532;-73
2023/06/10 02:39:09;;;;;;;7.43;6.73;;;14.50;81.50;;;;;;5073038;28;20438;-74
2023/06/10 02:41:36;;;;;;;12.20;7.13;;;14.40;81.50;;;;;;5072815;28;20498;-73
2023/06/10 02:44:04;;;;;;;6.43;5.83;;;14.40;82.30;;;;;;5073446;28;20468;-74
2023/06/10 02:46:32;;;;;;;10.30;6.87;;;14.30;81.80;;;;;;5072990;28;20441;-73
2023/06/10 02:48:59;;;;;;;7.57;6.23;;;14.30;82.20;;;;;;5073220;28;20425;-74
2023/06/10 02:51:26;;;;;;;7.90;7.10;;;14.30;82.60;;;;;;5072697;28;20431;-74
2023/06/10 02:53:54;;;;;;;8.97;7.90;;;14.30;83.00;;;;;;5073095;28;20489;-75
2023/06/10 02:56:21;;;;;;;8.87;6.90;;;14.30;82.20;;;;;;5072458;28;20466;-74
2023/06/10 02:58:49;;;;;;;7.80;7.00;;;14.20;82.40;;;;;;5072681;28;20443;-74
2023/06/10 03:01:17;;;;;;;9.93;7.30;;;14.20;82.20;;;;;;5072414;28;20437;-74
2023/06/10 03:03:46;;;;;;;8.67;7.00;;;14.20;83.00;;;;;;5072644;28;20434;-74
2023/06/10 03:06:13;;;;;;;7.00;6.30;;;14.20;83.50;;;;;;5072644;28;20437;-74
2023/06/10 03:08:40;;;;;;;7.60;6.40;;;14.10;84.00;;;;;;5072766;28;20437;-74
2023/06/10 03:11:07;;;;;;;7.30;6.60;;;;;;;;;;5072474;28;20533;-74
2023/06/10 03:13:35;;;;;;;8.40;7.50;;;;;;;;;;5072645;28;20457;-73
2023/06/10 03:16:03;;;;;;;8.00;7.20;;;;;;;;;;5073040;28;20438;-74
2023/06/10 03:18:30;;;;;;;8.37;7.43;;;;;;;;;;5072870;28;20456;-73
2023/06/10 03:20:59;;;;;;;8.50;7.70;;;;;;;;;;5071611;28;20490;-73
2023/06/10 03:23:27;;;;;;;8.23;7.40;;;;;;;;;;5072348;28;20432;-73
2023/06/10 03:25:54;;;;;;;10.20;8.20;;;;;;;;;;5072780;28;20437;-73
2023/06/10 03:28:22;;;;;;;9.20;8.00;;;;;;;;;;5072326;28;20437;-73
2023/06/10 03:30:51;;;;;;;9.40;8.00;;;;;;;;;;5071583;28;20928;-73
2023/06/10 03:33:18;;;;;;;11.07;8.20;;;;;;;;;;5072175;28;20778;-73
2023/06/10 03:35:46;;;;;;;8.37;7.43;;;;;;;;;;5072049;28;20503;-73
2023/06/10 03:38:14;;;;;;;13.07;8.20;;;;;;;;;;5072483;28;20441;-73
2023/06/10 03:40:42;;;;;;;8.33;7.37;;;;;;;;;;5071048;28;20805;-73
2023/06/10 03:43:09;;;;;;;10.73;7.07;;;;;;;;;;5072299;28;20495;-73
2023/06/10 03:45:36;;;;;;;8.60;7.57;;;;;;;;;;5072141;28;20446;-74
2023/06/10 03:48:04;;;;;;;8.43;7.40;;;;;;;;;;5072199;28;20437;-73
2023/06/10 03:50:31;;;;;;;10.40;8.17;;;;;;;;;;5071525;28;20434;-74
2023/06/10 03:52:59;;;;;;;14.70;8.00;;;;;;;;;;5072328;28;20442;-73
2023/06/10 03:55:28;;;;;;;8.93;7.60;;;;;;;;;;5072099;28;20576;-73
2023/06/10 03:57:55;;;;;;;10.30;8.67;;;;;;;;;;5072125;28;20990;-73
2023/06/10 04:00:23;;;;;;;8.73;7.67;;;;;;;;;;5071897;28;20441;-73
2023/06/10 04:02:51;;;;;;;8.20;7.40;;;;;;;;;;5072447;28;20442;-74
2023/06/10 04:05:22;;;;;;;9.83;8.70;;;;;;;;;;5071905;28;20441;-73
2023/06/10 04:07:49;;;;;;;9.67;8.67;;;;;;;;;;5072017;28;20437;-74
2023/06/10 04:10:17;;;;;;;13.33;8.20;;;;;;;;;;5071122;28;20449;-73
2023/06/10 04:12:45;;;;;;;7.63;6.90;;;;;;;;;;5071959;28;20498;-74
2023/06/10 04:15:13;;;;;;;12.43;8.97;;;;;;;;;;5071938;28;20485;-74
2023/06/10 04:17:41;;;;;;;9.97;7.83;;;;;;;;;;5071843;28;20479;-74
2023/06/10 04:20:09;;;;;;;9.63;7.90;;;;;;;;;;5071048;28;20457;-74
2023/06/10 04:22:37;;;;;;;10.73;8.70;;;;;;;;;;5071874;28;20968;-74
2023/06/10 04:25:05;;;;;;;15.07;8.70;;;;;;;;;;5071864;28;20437;-74
2023/06/10 04:27:32;;;;;;;8.80;7.80;;;;;;;;;;5072155;28;20449;-74
2023/06/10 04:30:00;;;;;;;8.53;7.10;;;;;;;;;;5071319;28;20491;-74
2023/06/10 04:32:28;;;;;;;8.50;7.53;;;;;;;;;;5052012;28;20786;-75
2023/06/10 04:34:56;;;;;;;9.37;8.40;;;;;;;;;;5057357;28;20535;-74
2023/06/10 04:37:23;;;;;;;7.33;6.53;;;;;;;;;;5072008;28;20523;-74
2023/06/10 04:39:50;;;;;;;9.53;7.67;;;;;;;;;;5071739;28;20506;-74
2023/06/10 04:42:18;;;;;;;8.47;7.67;;;;;;;;;;5071254;28;20444;-75
2023/06/10 04:44:45;;;;;;;9.00;8.10;;;;;;;;;;5071602;28;20437;-75
2023/06/10 04:47:14;;;;;;;8.80;7.83;;;;;;;;;;5071731;28;20448;-75
2023/06/10 04:49:41;;;;;;;8.67;7.77;;;;;;;;;;5071591;28;20796;-75
2023/06/10 04:52:09;;;;;;;8.57;7.10;;;;;;;;;;5070653;28;20847;-75
2023/06/10 04:54:36;;;;;;;8.40;7.50;;;;;;;;;;5071199;28;20485;-75
2023/06/10 04:57:04;;;;;;;9.20;7.00;;;;;;;;;;5074102;28;20444;-75
2023/06/10 04:59:31;;;;;;;11.00;7.97;;;;;;;;;;5075245;28;20433;-74
2023/06/10 05:01:58;;;;;;;8.97;8.13;;;;;;;;;;5074112;28;20503;-73
2023/06/10 05:04:27;;;;;;;8.70;7.57;;;;;;;;;;5075301;28;20437;-74
2023/06/10 05:06:55;;;;;;;12.60;9.10;;;;;;;;;;5074907;28;20491;-75
2023/06/10 05:09:22;;;;;;;11.80;8.73;;;;;;;;;;5075183;28;20769;-74
2023/06/10 05:11:50;;;;;;;9.77;8.17;;;;;;;;;;5074340;28;20970;-74
2023/06/10 05:14:19;;;;;;;8.17;7.30;;;;;;;;;;5074723;28;20471;-73
2023/06/10 05:16:46;;;;;;;8.90;8.00;;;;;;;;;;5074922;28;20438;-74
2023/06/10 05:19:13;;;;;;;9.17;8.00;;;;;;;;;;5074014;28;20445;-73
2023/06/10 05:21:42;;;;;;;8.43;7.60;;;;;;;;;;5074174;28;20954;-73
2023/06/10 05:24:10;;;;;;;9.00;7.90;;;;;;;;;;5074567;28;20441;-74
2023/06/10 05:26:38;;;;;;;10.30;6.60;;;;;;;;;;5074172;28;20438;-74
2023/06/10 05:29:05;;;;;;;7.90;7.10;;;;;;;;;;5074271;28;20438;-75
2023/06/10 05:31:33;;;;;;;9.37;8.47;;;;;;;;;;5074067;28;20449;-74
2023/06/10 05:34:00;;;;;;;9.60;8.60;;;;;;;;;;5074752;28;20457;-74
2023/06/10 05:36:28;;;;;;;9.07;7.90;;;;;;;;;;5074386;28;20535;-74
2023/06/10 05:38:56;;;;;;;9.57;8.23;;;;;;;;;;5074356;28;20780;-74
2023/06/10 05:41:25;;;;;;;8.80;7.57;;;;;;;;;;5073735;28;20901;-74
2023/06/10 05:43:52;;;;;;;10.40;7.37;;;;;;;;;;5074683;28;20431;-75
2023/06/10 05:46:20;;;;;;;9.33;8.10;;;;;;;;;;5074313;28;20434;-75
2023/06/10 05:48:47;;;;;;;8.03;7.23;;;;;;;;;;5022650;28;20451;-73
2023/06/10 05:51:17;;;;;;;13.13;8.13;;;;;;;;;;5060996;28;20443;-75
2023/06/10 05:53:46;;;;;;;9.00;8.17;;;;;;;;;;5072613;28;20530;-75
2023/06/10 05:56:18;;;;;;;10.37;7.90;;;;;;;;;;5072778;28;20516;-75
2023/06/10 05:58:46;;;;;;;8.00;7.10;;;;;;;;;;5054451;28;20450;-75
2023/06/10 06:01:14;;;;;;;8.63;7.83;;;;;;;;;;5065506;28;20442;-76
2023/06/10 06:03:41;;;;;;;9.23;7.80;;;;;;;;;;5069630;28;20434;-74
2023/06/10 06:06:09;;;;;;;9.10;8.20;;;;;;;;;;5056813;28;20857;-73
2023/06/10 06:08:36;;;;;;;8.40;7.50;;;;;;;;;;5054219;28;20443;-76
2023/06/10 06:11:04;;;;;;;12.57;8.57;;;;;;;;;;5055512;28;20799;-72
2023/06/10 06:13:32;;;;;;;8.97;8.03;;;;;;;;;;5067143;28;20434;-73
2023/06/10 06:16:00;;;;;;;8.63;7.50;;;;;;;;;;5069882;28;20505;-74
2023/06/10 06:18:28;;;;;;;9.47;7.80;;;;;;;;;;5058710;28;20549;-73
2023/06/10 06:20:55;;;;;;;9.07;8.17;;;;;;;;;;5053257;28;20455;-74
2023/06/10 06:23:23;;;;;;;9.37;8.47;;;;;;;;;;5053761;28;20485;-73
2023/06/10 06:25:50;;;;;;;10.50;8.90;;;;;;;;;;5058550;28;20439;-73
2023/06/10 06:28:18;;;;;;;9.87;8.87;;;;;;;;;;5065837;28;20522;-73
2023/06/10 06:30:47;;;;;;;10.00;9.00;;;;;;;;;;5060267;28;20482;-73
2023/06/10 06:33:15;;;;;;;10.73;8.47;;;;;;;;;;5064368;28;20517;-73
2023/06/10 06:35:42;;;;;;;8.87;8.00;;;;;;;;;;5069802;28;20487;-73
2023/06/10 06:38:09;;;;;;;10.43;9.30;;;;;;;;;;5070025;28;20449;-73
2023/06/10 06:40:37;;;;;;;11.63;9.40;;;;;;;;;;5070727;28;20439;-74
2023/06/10 06:43:04;;;;;;;10.93;9.83;;;;;;;;;;5038853;28;20985;-73
2023/06/10 06:45:33;;;;;;;10.13;9.03;;;;;;;;;;5062113;28;20842;-73
2023/06/10 06:48:02;;;;;;;9.77;8.77;;;;;;;;;;5063576;28;20966;-74
2023/06/10 06:50:29;;;;;;;9.10;8.20;;;;;;;;;;5068849;28;20442;-75
2023/06/10 06:52:57;;;;;;;10.23;9.23;;;;;;;;;;5067609;28;20639;-73
2023/06/10 06:55:24;;;;;;;9.13;8.23;;;;;;;;;;5069552;28;20498;-73
2023/06/10 06:57:51;;;;;;;10.40;9.40;;;;;;;;;;5054216;28;20531;-73
2023/06/10 07:00:19;;;;;;;10.93;9.07;;;;;;;;;;5068013;28;20435;-72
2023/06/10 07:02:46;;;;;;;10.87;9.03;;;;;;;;;;5052321;28;20981;-73
2023/06/10 07:05:15;;;;;;;8.60;7.67;;;;;;;;;;5058841;28;20447;-73
2023/06/10 07:07:42;;;;;;;10.50;8.13;;;;;;;;;;5070363;28;20700;-73
2023/06/10 07:10:10;;;;;;;11.30;9.07;;;;;;;;;;5069687;28;20447;-73
2023/06/10 07:12:37;;;;;;;9.63;8.73;;;;;;;;;;5070466;28;20512;-73
2023/06/10 07:15:04;;;;;;;9.97;8.80;;;;;;;;;;5066406;28;20834;-73
2023/06/10 07:17:32;;;;;;;11.43;7.90;;;;;;;;;;5052034;28;20450;-72
2023/06/10 07:19:59;;;;;;;9.13;8.23;;;;;;;;;;5060201;28;20461;-73
2023/06/10 07:22:28;;;;;;;7.53;6.80;;;;;;;;;;5052040;28;20439;-73
2023/06/10 07:24:55;;;;;;;9.80;7.80;;;;;;;;;;5052038;28;20954;-74
2023/06/10 07:27:23;;;;;;;9.50;8.23;;;;;;;;;;5060322;28;20443;-73
2023/06/10 07:29:50;;;;;;;8.80;7.97;;;;;;;;;;5068432;28;20545;-74
2023/06/10 07:32:20;;;;;;;8.93;7.80;;;;;;;;;;5067694;28;20456;-74
2023/06/10 07:34:47;;;;;;;8.60;7.30;;;;;;;;;;5053715;28;20432;-73
2023/06/10 07:37:14;;;;;;;9.90;8.90;;;;;;;;;;5055159;28;20439;-73
2023/06/10 07:39:43;;;;;;;9.17;7.53;;;;;;;;;;5055339;28;20673;-73
2023/06/10 07:42:10;;;;;;;8.73;7.83;;;;;;;;;;5055381;28;20446;-73
2023/06/10 07:44:38;;;;;;;9.60;8.60;;;;;;;;;;5052674;28;20443;-73
2023/06/10 07:47:05;;;;;;;9.33;8.43;;;;;;;;;;5056949;28;20479;-72
2023/06/10 07:49:32;;;;;;;8.70;7.60;;;;;;;;;;5069971;28;20539;-73
2023/06/10 07:52:00;;;;;;;9.93;8.93;;;;;;;;;;5064076;28;20476;-73
2023/06/10 07:54:27;;;;;;;8.70;7.40;;;;;;;;;;5060141;28;20470;-74
2023/06/10 07:56:56;;;;;;;9.00;7.70;;;;;;;;;;5065534;28;20489;-74
2023/06/10 07:59:25;;;;;;;12.30;7.40;;;;;;;;;;5069465;28;20450;-74
2023/06/10 08:01:52;;;;;;;9.17;8.17;;;;;;;;;;5069038;28;20469;-73
2023/06/10 08:04:20;;;;;;;8.80;7.70;;;;;;;;;;5068560;28;21507;-73
2023/06/10 08:06:47;;;;;;;9.03;7.73;;;;;;;;;;5055321;28;20479;-74
2023/06/10 08:09:14;;;;;;;9.77;8.20;;;;;;;;;;5051268;28;20962;-73
2023/06/10 08:11:41;;;;;;;8.70;7.40;;;;;;;;;;5051653;28;20503;-74
2023/06/10 08:14:10;;;;;;;10.30;7.30;;;;;;;;;;5053526;28;20445;-73
2023/06/10 08:16:37;;;;;;;9.70;7.60;;;;;;;;;;5061432;28;20482;-73
2023/06/10 08:19:05;;;;;;;8.77;7.77;;;;;;;;;;5069374;28;20435;-73
2023/06/10 08:21:33;;;;;;;8.40;7.60;;;;;;;;;;5069051;28;20838;-74
2023/06/10 08:24:00;;;;;;;8.70;6.73;;;;;;;;;;5065201;28;20802;-74
2023/06/10 08:26:27;;;;;;;8.70;7.77;;;;;;;;;;5062642;28;20877;-74
2023/06/10 08:28:55;;;;;;;8.33;7.10;;;;;;;;;;5054075;28;20466;-74
2023/06/10 08:31:24;;;;;;;8.03;6.47;;;;;;;;;;5056771;28;20443;-74
2023/06/10 08:33:51;;;;;;;11.23;6.40;;;;;;;;;;5062329;28;20949;-74
2023/06/10 08:36:19;;;;;;;8.60;7.30;;;;;;;;;;5072722;28;20494;-74
2023/06/10 08:38:46;;;;;;;12.23;7.10;;;;;;;;;;5072637;28;20481;-74
2023/06/10 08:41:15;;;;;;;7.83;6.37;;;;;;;;;;5072016;28;20481;-74
2023/06/10 08:43:45;;;;;;;7.03;6.07;;;;;;;;;;5061909;28;20914;-74
2023/06/10 08:46:14;;;;;;;10.03;6.97;;;;;;;;;;5058390;28;20442;-74
2023/06/10 08:48:45;;;;;;;7.53;6.10;;;;;;;;;;5055970;28;20450;-74
2023/06/10 08:51:12;;;;;;;7.07;6.33;;;;;;;;;;5064503;28;20549;-74
2023/06/10 08:53:43;;;;;;;7.07;6.20;;;;;;;;;;5066934;28;20451;-74
2023/06/10 08:56:11;;;;;;;6.67;5.97;;;;;;;;;;5061373;28;20493;-74
2023/06/10 08:58:41;;;;;;;7.57;5.40;;;;;;;;;;5066133;28;20451;-74
2023/06/10 09:01:09;;;;;;;7.20;5.87;;;;;;;;;;5063751;28;20447;-74
2023/06/10 09:03:37;;;;;;;8.77;6.00;;;;;;;;;;5068111;28;21006;-74
2023/06/10 09:06:07;;;;;;;6.20;4.93;;;;;;;;;;5064899;28;20481;-74
2023/06/10 09:08:35;;;;;;;5.13;4.63;;;;;;;;;;5066651;28;20463;-74
2023/06/10 09:11:02;;;;;;;5.93;4.83;;;;;;;;;;5064562;28;20464;-74
2023/06/10 09:13:30;;;;;;;6.87;5.40;;;;;;;;;;5064790;28;20487;-74
2023/06/10 09:16:00;;;;;;;6.47;5.57;;;;;;;;;;5064840;28;21009;-74
2023/06/10 09:18:28;;;;;;;5.63;4.90;;;;;;;;;;5065038;28;20474;-73
2023/06/10 09:20:55;;;;;;;7.53;5.10;;;;;;;;;;5069523;28;20965;-74
2023/06/10 09:23:23;;;;;;;5.67;5.00;;;;;;;;;;5068032;28;20521;-74
2023/06/10 09:25:57;;;;;;;8.13;5.70;;;;;;;;;;5062657;28;20531;-74
2023/06/10 09:28:25;;;;;;;5.00;4.50;;;;;;;;;;5064194;28;20797;-74
2023/06/10 09:31:02;;;;;;;5.63;4.40;;;;;;;;;;5068039;28;20535;-74
2023/06/10 09:33:30;;;;;;;5.77;5.17;;;;;;;;;;5063646;28;20526;-73
2023/06/10 09:36:00;;;;;;;4.60;4.10;;;;;;;;;;5066998;28;20491;-73
2023/06/10 09:38:31;;;;;;;5.67;4.07;;;;;;;;;;5063803;28;20452;-74
2023/06/10 09:40:58;;;;;;;7.13;5.13;;;;;;;;;;5064393;28;20450;-74
2023/06/10 09:43:39;;;;;;;6.00;5.27;;;;;;;;;;5066591;28;21027;-74
2023/06/10 09:46:06;;;;;;;5.93;4.53;;;;;;;;;;5063998;28;20965;-74
2023/06/10 09:48:37;;;;;;;5.77;5.07;;;;;;;;;;5063295;28;20439;-75
2023/06/10 09:51:10;;;;;;;5.63;4.83;;;;;;;;;;5064552;28;20451;-74
2023/06/10 09:53:39;;;;;;;7.73;5.47;;;;;;;;;;5062512;28;20439;-75
2023/06/10 09:56:06;;;;;;;6.57;5.07;;;;;;;;;;5065472;28;20582;-75
2023/06/10 09:58:37;;;;;;;7.53;5.20;;;;;;;;;;5063323;28;20488;-75
2023/06/10 10:01:08;;;;;;;10.17;4.70;;;;;;;;;;5065589;28;20438;-74
2023/06/10 10:03:35;;;;;;;9.23;5.23;;;;;;;;;;5064594;28;20513;-74
2023/06/10 10:06:02;;;;;;;8.83;5.10;;;;;;;;;;5066733;28;20437;-74
2023/06/10 10:08:29;;;;;;;4.70;4.00;;;;;;;;;;5069667;28;20444;-74
2023/06/10 10:11:00;;;;;;;5.27;4.77;;;;;;;;;;5060674;28;20436;-74
2023/06/10 10:13:28;;;;;;;5.17;4.40;;;;;;;;;;5065260;28;20434;-75
2023/06/10 10:15:56;;;;;;;5.27;4.77;;;;;;;;;;5059554;28;20442;-74
2023/06/10 10:18:28;;;;;;;6.27;4.90;;;;;;;;;;5067092;28;20445;-75
2023/06/10 10:20:56;;;;;;;5.27;4.77;;;;;;;;;;5063382;28;20442;-73
2023/06/10 10:23:26;;;;;;;5.30;4.73;;;;;;;;;;5065077;28;20441;-74
2023/06/10 10:25:55;;;;;;;5.73;4.60;;;;;;;;;;5066660;28;20447;-75
2023/06/10 10:28:27;;;;;;;5.60;5.00;;;;;;;;;;5061462;28;20531;-74
2023/06/10 10:30:56;;;;;;;6.43;5.17;;;;;;;;;;5065796;28;20444;-74
2023/06/10 10:33:29;;;;;;;6.20;5.60;;;;;;;;;;5065388;28;20451;-75
2023/06/10 10:35:56;;;;;;;6.30;5.33;;;;;;;;;;5066263;28;20520;-74
2023/06/10 10:38:24;;;;;;;5.30;4.80;;;;;;;;;;5066369;28;20493;-74
2023/06/10 10:40:52;;;;;;;6.17;4.87;;;;;;;;;;5063608;28;20447;-74
2023/06/10 10:43:20;;;;;;;5.10;4.60;;;;;;;;;;5061200;28;20793;-73
2023/06/10 10:45:59;;;;;;;10.73;5.20;;;;;;;;;;5067174;28;20466;-74
2023/06/10 10:48:29;;;;;;;6.10;5.20;;;;;;;;;;5061026;28;20534;-74
2023/06/10 10:50:59;;;;;;;5.03;4.53;;;;;;;;;;5060194;28;20450;-74
2023/06/10 10:53:26;;;;;;;5.83;5.23;;;;;;;;;;5064875;28;20492;-75
2023/06/10 10:56:00;;;;;;;7.30;5.13;;;;;;;;;;5062884;28;20504;-75
2023/06/10 10:58:28;;;;;;;4.90;3.80;;;;;;;;;;5067489;28;20490;-74
2023/06/10 11:00:56;;;;;;;6.00;4.47;;;;;;;;;;5063887;28;20448;-75
2023/06/10 11:03:24;;;;;;;7.13;4.83;;;;;;;;;;5062138;28;20440;-74
2023/06/10 11:05:51;;;;;;;6.20;4.90;;;;;;;;;;5062714;28;20452;-75
2023/06/10 11:08:44;;;;;;;5.70;3.90;;;;;;;;;;5066380;28;20442;-74
2023/06/10 11:11:20;;;;;;;5.63;5.03;;;;;;;;;;5068119;28;20801;-74
2023/06/10 11:13:59;;;;;;;4.80;4.13;;;;;;;;;;5064952;28;20527;-74
2023/06/10 11:16:29;;;;;;;4.90;4.30;;;;;;;;;;5064888;28;20887;-74
2023/06/10 11:18:57;;;;;;;5.80;4.20;;;;;;;;;;5061279;28;20842;-74
2023/06/10 11:21:25;;;;;;;5.83;4.00;;;;;;;;;;5066610;28;20475;-74
2023/06/10 11:23:53;;;;;;;4.40;4.00;;;;;;;;;;5064344;28;20443;-74
2023/06/10 11:26:21;;;;;;;5.40;3.97;;;;;;;;;;5065792;28;20455;-74
2023/06/10 11:29:11;;;;;;;5.10;3.77;;;;;;;;;;5064612;28;21529;-74
2023/06/10 11:31:44;;;;;;;5.97;5.10;;;;;;;;;;5066928;28;20463;-74
2023/06/10 11:34:14;;;;;;;5.47;4.40;;;;;;;;;;5065368;28;20439;-75
2023/06/10 11:36:44;;;;;;;5.33;4.83;;;;;;;;;;5068289;28;20518;-75
2023/06/10 11:39:12;;;;;;;5.47;4.10;;;;;;;;;;5061039;28;20458;-75
2023/06/10 11:41:40;;;;;;;4.70;4.20;;;;;;;;;;5066022;28;20453;-74
2023/06/10 11:44:10;;;;;;;4.80;4.20;;;;;;;;;;5063265;28;20938;-75
2023/06/10 11:46:37;;;;;;;4.77;4.00;;;;;;;;;;5058858;28;20938;-74
2023/06/10 11:49:06;;;;;;;5.80;4.30;;;;;;;;;;5061969;28;20497;-74
2023/06/10 11:51:35;;;;;;;5.10;4.60;;;;;;;;;;5065053;28;20443;-74
2023/06/10 11:54:03;;;;;;;5.63;5.03;;;;;;;;;;5058676;28;20448;-75
2023/06/10 11:56:31;;;;;;;4.83;4.13;;;;;;;;;;5066128;28;20470;-74
2023/06/10 11:59:00;;;;;;;4.80;3.87;;;;;;;;;;5060363;28;20443;-74
2023/06/10 12:01:28;;;;;;;4.67;4.17;;;;;;;;;;5059476;28;20447;-74
2023/06/10 12:03:59;;;;;;;6.90;4.60;;;;;;;;;;5067371;28;20450;-73
2023/06/10 12:06:27;;;;;;;4.80;4.30;;;;;;;;;;5060826;28;21496;-73
2023/06/10 12:08:55;;;;;;;4.10;3.60;;;;;;;;;;5065800;28;20451;-73
2023/06/10 12:11:23;;;;;;;4.80;3.70;;;;;;;;;;5070938;28;20454;-74
2023/06/10 12:13:51;;;;;;;6.20;4.63;;;;;;;;;;5061654;28;20435;-74
2023/06/10 12:16:19;;;;;;;5.87;4.30;;;;;;;;;;5068619;28;20451;-75
2023/06/10 12:18:46;;;;;;;4.63;4.13;;;;;;;;;;5066215;28;20458;-75
2023/06/10 12:21:17;;;;;;;5.60;3.93;;;;;;;;;;5061613;28;20529;-74
2023/06/10 12:24:00;;;;;;;4.63;4.10;;;;;;;;;;5065797;28;20458;-74
2023/06/10 12:26:37;;;;;;;5.37;4.33;;;;;;;;;;5067854;28;20505;-73
2023/06/10 12:29:13;;;;;;;6.60;4.47;;;;;;;;;;5061564;28;20895;-74
2023/06/10 12:31:53;;;;;;;6.40;4.57;;;;;;;;;;5067844;28;20976;-74
2023/06/10 12:34:21;;;;;;;4.53;3.57;;;;;;;;;;5067472;28;20466;-75
2023/06/10 12:36:49;;;;;;;4.90;4.33;;;;;;;;;;5062964;28;20483;-74
2023/06/10 12:39:17;;;;;;;5.60;4.30;;;;;;;;;;5065608;28;20439;-74
2023/06/10 12:41:50;;;;;;;4.70;3.70;;;;;;;;;;5066881;28;20455;-75
2023/06/10 12:44:17;;;;;;;5.83;4.07;;;;;;;;;;5062661;28;20448;-75
2023/06/10 12:46:44;;;;;;;3.97;3.57;;;;;;;;;;5066479;28;20516;-75
2023/06/10 12:49:20;;;;;;;5.00;3.90;;;;;;;;;;5059029;28;20576;-74
2023/06/10 12:51:49;;;;;;;5.20;4.70;;;;;;;;;;5069536;28;20530;-74
2023/06/10 12:54:16;;;;;;;8.43;4.20;;;;;;;;;;5066356;28;20975;-74
2023/06/10 12:56:43;;;;;;;8.47;5.47;;;;;;;;;;5061220;28;20447;-74
2023/06/10 12:59:12;;;;;;;5.77;4.10;;;;;;;;;;5062574;28;20559;-74
2023/06/10 13:01:39;;;;;;;4.20;3.77;;;;;;;;;;5063644;28;20440;-74
2023/06/10 13:04:07;;;;;;;3.70;3.10;;;;;;;;;;5060298;28;21870;-74
2023/06/10 13:06:37;;;;;;;8.70;3.97;;;;;;;;;;5069675;28;20486;-74
2023/06/10 13:09:06;;;;;;;4.77;3.80;;;;;;;;;;5059615;28;20930;-74
2023/06/10 13:11:33;;;;;;;6.00;4.63;;;;;;;;;;5063577;28;20454;-74
2023/06/10 13:14:01;;;;;;;7.20;4.40;;;;;;;;;;5069995;28;20470;-74
2023/06/10 13:16:30;;;;;;;4.50;3.83;;;;;;;;;;5060347;28;20547;-75
2023/06/10 13:18:57;;;;;;;5.50;4.43;;;;;;;;;;5065425;28;20478;-74
2023/06/10 13:21:25;;;;;;;5.30;3.90;;;;;;;;;;5068105;28;20459;-75
2023/06/10 13:23:52;;;;;;;3.93;3.53;;;;;;;;;;5060184;28;20452;-75
2023/06/10 13:26:19;;;;;;;5.30;3.70;;;;;;;;;;5067227;28;20466;-75
2023/06/10 13:28:47;;;;;;;5.30;4.20;;;;;;;;;;5062033;28;20478;-74
2023/06/10 13:31:14;;;;;;;5.97;4.60;;;;;;;;;;5063175;28;20561;-74
2023/06/10 13:33:43;;;;;;;3.93;3.37;;;;;;;;;;5068271;28;20447;-73
2023/06/10 13:36:12;;;;;;;3.77;3.07;;;;;;;;;;5061045;28;20442;-74
2023/06/10 13:38:39;;;;;;;4.80;4.20;;;;;;;;;;5064584;28;20514;-74
2023/06/10 13:41:06;;;;;;;4.30;3.00;;;;;;;;;;5066680;28;20516;-75
2023/06/10 13:43:34;;;;;;;3.80;3.23;;;;;;;;;;5062210;28;20470;-74
2023/06/10 13:46:01;;;;;;;4.83;3.30;;;;;;;;;;5067162;28;20907;-74
2023/06/10 13:48:29;;;;;;;5.50;3.70;;;;;;;;;;5063183;28;20490;-74
2023/06/10 13:50:57;;;;;;;4.20;3.10;;;;;;;;;;5061447;28;20813;-75
2023/06/10 13:53:25;;;;;;;4.73;3.53;;;;;;;;;;5068579;28;20536;-74
2023/06/10 13:55:52;;;;;;;3.50;3.20;;;;;;;;;;5061065;28;20528;-74
2023/06/10 13:58:19;;;;;;;4.60;3.93;;;;;;;;;;5063736;28;20486;-74
2023/06/10 14:00:47;;;;;;;4.40;3.70;;;;;;;;;;5063373;28;20926;-74
2023/06/10 14:03:17;;;;;;;4.37;3.93;;;;;;;;;;5062956;28;20810;-75
2023/06/10 14:05:44;;;;;;;3.57;2.83;;;;;;;;;;5063019;28;20448;-74
2023/06/10 14:08:14;;;;;;;4.87;3.60;;;;;;;;;;5066394;28;20537;-72
2023/06/10 14:10:41;;;;;;;4.00;3.20;;;;;;;;;;5064830;28;20438;-74
2023/06/10 14:13:09;;;;;;;4.97;3.60;;;;;;;;;;5068077;28;20449;-76
2023/06/10 14:15:36;;;;;;;3.70;3.10;;;;;;;;;;5061832;28;20794;-75
2023/06/10 14:18:04;;;;;;;6.73;3.80;;;;;;;;;;5069644;28;21038;-75
2023/06/10 14:20:31;;;;;;;4.50;3.40;;;;;;;;;;5066731;28;20917;-75